Time;durP1;ratioP1;P1;durP2;ratioP2;P2;SDS_P1;SDS_P2;PMS_P1;PMS_P2;Temp;Humidity;BMP_temperature;BMP_pressure;BME280_temperature;BME280_humidity;BME280_pressure;Samples;Min_cycle;Max_cycle;Signal;HPM_P1;HPM_P2
2024/02/14 00:00:17;;;;;;;;;;;;;;;-144.99;100.00;67352.69;5045511;28;19917;-80
2024/02/14 00:02:49;;;;;;;;;;;;;;;-144.99;100.00;67352.69;5050445;28;19918;-79
2024/02/14 00:05:14;;;;;;;;;;;;;;;-144.99;100.00;67352.69;5049577;28;19919;-80
2024/02/14 00:07:39;;;;;;;;;;;;;;;-144.99;100.00;67352.69;5053425;28;19913;-79
2024/02/14 00:10:05;;;;;;;;;;;;;;;-144.99;100.00;67352.69;5051583;28;20364;-80
2024/02/14 00:12:31;;;;;;;;;;;;;;;-144.99;100.00;67352.69;5053432;28;19927;-79
2024/02/14 00:14:57;;;;;;;;;;;;;;;-144.99;100.00;67352.69;5054758;28;19963;-79
2024/02/14 00:17:22;;;;;;;;;;;;;;;-144.99;100.00;67352.69;5052823;28;19919;-80
2024/02/14 00:19:48;;;;;;;;;;;;;;;-144.99;100.00;67352.69;5053534;28;19919;-80
2024/02/14 00:22:14;;;;;;;;;;;;;;;-144.99;100.00;67352.69;5054362;28;19967;-80
2024/02/14 00:24:39;;;;;;;;;;;;;;;-144.99;100.00;67352.69;5055967;28;19968;-81
2024/02/14 00:27:04;;;;;;;;;;;;;;;-144.99;100.00;67352.69;5055147;28;19913;-80
2024/02/14 00:29:29;;;;;;;;;;;;;;;-144.99;100.00;67352.69;5055179;28;19917;-80
2024/02/14 00:31:54;;;;;;;;;;;;;;;-144.99;100.00;67352.69;5054509;28;19913;-80
2024/02/14 00:34:20;;;;;;;;;;;;;;;-144.99;100.00;67352.69;5054529;28;19920;-80
2024/02/14 00:36:46;;;;;;;;;;;;;;;-144.99;100.00;67352.69;5055401;28;19919;-80
2024/02/14 00:39:11;;;;;;;;;;;;;;;-144.99;100.00;67352.69;5057291;28;19913;-80
2024/02/14 00:41:37;;;;;;;;;;;;;;;-144.99;100.00;67352.69;5054703;28;19928;-80
2024/02/14 00:44:03;;;;;;;;;;;;;;;-144.99;100.00;67352.69;5056162;28;20265;-80
2024/02/14 00:46:28;;;;;;;;;;;;;;;-144.99;100.00;67352.69;5055469;28;19966;-80
2024/02/14 00:48:54;;;;;;;;;;;;;;;-144.99;100.00;67352.69;5056471;28;20346;-80
2024/02/14 00:51:19;;;;;;;;;;;;;;;-144.99;100.00;67352.69;5056178;28;19999;-81
2024/02/14 00:53:44;;;;;;;;;;;;;;;-144.99;100.00;67352.69;5054785;28;20020;-80
2024/02/14 00:56:10;;;;;;;;;;;;;;;-144.99;100.00;67352.69;5055553;28;20365;-81
2024/02/14 00:58:36;;;;;;;;;;;;;;;-144.99;100.00;67352.69;5056297;28;19935;-80
2024/02/14 01:01:01;;;;;;;;;;;;;;;-144.99;100.00;67352.69;5056317;28;20022;-80
2024/02/14 01:03:26;;;;;;;;;;;;;;;-144.99;100.00;67352.69;5055673;28;20379;-80
2024/02/14 01:05:51;;;;;;;;;;;;;;;-144.99;100.00;67352.69;5055357;28;19935;-80
2024/02/14 01:08:17;;;;;;;;;;;;;;;-144.99;100.00;67352.69;5056131;28;19917;-81
2024/02/14 01:10:42;;;;;;;;;;;;;;;-144.99;100.00;67352.69;5055653;28;19919;-80
2024/02/14 01:13:07;;;;;;;;;;;;;;;-144.99;100.00;67352.69;5054510;28;19913;-80
2024/02/14 01:15:35;;;;;;;;;;;;;;;-144.99;100.00;67352.69;5054088;28;19966;-80
2024/02/14 01:18:00;;;;;;;;;;;;;;;-144.99;100.00;67352.69;5053633;28;19913;-80
2024/02/14 01:20:26;;;;;;;;;;;;;;;-144.99;100.00;67352.69;5052710;28;19975;-80
2024/02/14 01:22:51;;;;;;;;;;;;;;;-144.99;100.00;67352.69;5052493;28;19912;-79
2024/02/14 01:25:16;;;;;;;;;;;;;;;-144.99;100.00;67352.69;5054150;28;20271;-80
2024/02/14 01:27:42;;;;;;;;;;;;;;;-144.99;100.00;67352.69;5051779;28;20307;-79
2024/02/14 01:30:08;;;;;;;;;;;;;;;-144.99;100.00;67352.69;5053652;28;19917;-79
2024/02/14 01:32:33;;;;;;;;;;;;;;;-144.99;100.00;67352.69;5051037;28;19920;-80
2024/02/14 01:35:00;;;;;;;;;;;;;;;-144.99;100.00;67352.69;5053245;28;19913;-80
2024/02/14 01:37:25;;;;;;;;;;;;;;;-144.99;100.00;67352.69;5051682;28;19921;-80
2024/02/14 01:39:50;;;;;;;;;;;;;;;-144.99;100.00;67352.69;5052489;28;20004;-80
2024/02/14 01:42:16;;;;;;;;;;;;;;;-144.99;100.00;67352.69;5053495;28;19912;-80
2024/02/14 01:44:41;;;;;;;;;;;;;;;-144.99;100.00;67352.69;5052606;28;19938;-80
2024/02/14 01:47:06;;;;;;;;;;;;;;;-144.99;100.00;67352.69;5051339;28;20387;-80
2024/02/14 01:49:33;;;;;;;;;;;;;;;-144.99;100.00;67352.69;5052364;28;19920;-80
2024/02/14 01:52:01;;;;;;;;;;;;;;;-144.99;100.00;67352.69;5053299;28;19913;-80
2024/02/14 01:54:27;;;;;;;;;;;;;;;-144.99;100.00;67352.69;5053357;28;19919;-80
2024/02/14 01:56:53;;;;;;;;;;;;;;;-144.99;100.00;67352.69;5052631;28;20003;-80
2024/02/14 01:59:18;;;;;;;;;;;;;;;-144.99;100.00;67352.69;5052452;28;20367;-80
2024/02/14 02:01:43;;;;;;;;;;;;;;;-144.99;100.00;67352.69;5051522;28;20003;-80
2024/02/14 02:04:08;;;;;;;;;;;;;;;-144.99;100.00;67352.69;5052982;28;20388;-80
2024/02/14 02:06:34;;;;;;;;;;;;;;;-144.99;100.00;67352.69;5050865;28;20319;-80
2024/02/14 02:09:00;;;;;;;;;;;;;;;-144.99;100.00;67352.69;5052989;28;20298;-80
2024/02/14 02:11:25;;;;;;;;;;;;;;;-144.99;100.00;67352.69;5050114;28;19995;-80
2024/02/14 02:13:50;;;;;;;;;;;;;;;-144.99;100.00;67352.69;5050960;28;20291;-79
2024/02/14 02:16:15;;;;;;;;;;;;;;;-144.99;100.00;67352.69;5047761;28;19983;-80
2024/02/14 02:18:41;;;;;;;;;;;;;;;-144.99;100.00;67352.69;5050628;28;20431;-80
2024/02/14 02:21:06;;;;;;;;;;;;;;;-144.99;100.00;67352.69;5050928;28;19923;-80
2024/02/14 02:23:35;;;;;;;;;;;;;;;-144.99;100.00;67352.69;5052331;28;19917;-80
2024/02/14 02:26:00;;;;;;;;;;;;;;;-144.99;100.00;67352.69;5043890;28;19913;-80
2024/02/14 02:28:25;;;;;;;;;;;;;;;-144.99;100.00;67352.69;5052546;28;20345;-80
2024/02/14 02:30:52;;;;;;;;;;;;;;;-144.99;100.00;67352.69;5049669;28;20110;-80
2024/02/14 02:33:17;;;;;;;;;;;;;;;-144.99;100.00;67352.69;5050931;28;19967;-80
2024/02/14 02:35:45;;;;;;;;;;;;;;;-144.99;100.00;67352.69;5051241;28;19920;-80
2024/02/14 02:38:10;;;;;;;;;;;;;;;-144.99;100.00;67352.69;5051122;28;19913;-80
2024/02/14 02:40:35;;;;;;;;;;;;;;;-144.99;100.00;67352.69;5052402;28;20384;-80
2024/02/14 02:43:00;;;;;;;;;;;;;;;-144.99;100.00;67352.69;5052136;28;20400;-80
2024/02/14 02:45:25;;;;;;;;;;;;;;;-144.99;100.00;67352.69;5051108;28;20422;-80
2024/02/14 02:47:51;;;;;;;;;;;;;;;-144.99;100.00;67352.69;5051480;28;19913;-80
2024/02/14 02:50:16;;;;;;;;;;;;;;;-144.99;100.00;67352.69;5052213;28;20321;-81
2024/02/14 02:52:41;;;;;;;;;;;;;;;-144.99;100.00;67352.69;5050948;28;20172;-80
2024/02/14 02:55:07;;;;;;;;;;;;;;;-144.99;100.00;67352.69;5051140;28;19916;-80
2024/02/14 02:57:33;;;;;;;;;;;;;;;-144.99;100.00;67352.69;5051397;28;19916;-80
2024/02/14 02:59:58;;;;;;;;;;;;;;;-144.99;100.00;67352.69;5050812;28;19913;-80
2024/02/14 03:02:25;;;;;;;;;;;;;;;-144.99;100.00;67352.69;5052119;28;20439;-81
2024/02/14 03:04:51;;;;;;;;;;;;;;;-144.99;100.00;67352.69;5050507;28;19917;-80
2024/02/14 03:07:16;;;;;;;;;;;;;;;-144.99;100.00;67352.69;5049859;28;20004;-81
2024/02/14 03:09:41;;;;;;;;;;;;;;;-144.99;100.00;67352.69;5050797;28;19920;-80
2024/02/14 03:12:07;;;;;;;;;;;;;;;-144.99;100.00;67352.69;5051737;28;20379;-81
2024/02/14 03:14:32;;;;;;;;;;;;;;;-144.99;100.00;67352.69;5051886;28;19959;-80
2024/02/14 03:17:01;;;;;;;;;;;;;;;-144.99;100.00;67352.69;5051029;28;20276;-81
2024/02/14 03:19:27;;;;;;;;;;;;;;;-144.99;100.00;67352.69;5050807;28;19917;-80
2024/02/14 03:21:55;;;;;;;;;;;;;;;-144.99;100.00;67352.69;5050118;28;19966;-80
2024/02/14 03:24:21;;;;;;;;;;;;;;;-144.99;100.00;67352.69;5051489;28;19970;-80
2024/02/14 03:26:46;;;;;;;;;;;;;;;-144.99;100.00;67352.69;5050773;28;19916;-80
2024/02/14 03:29:11;;;;;;;;;;;;;;;-144.99;100.00;67352.69;5051662;28;19917;-80
2024/02/14 03:31:36;;;;;;;;;;;;;;;-144.99;100.00;67352.69;5051335;28;19920;-81
2024/02/14 03:34:02;;;;;;;;;;;;;;;-144.99;100.00;67352.69;5050519;28;19913;-80
2024/02/14 03:36:30;;;;;;;;;;;;;;;-144.99;100.00;67352.69;5051203;28;20364;-81
2024/02/14 03:38:55;;;;;;;;;;;;;;;-144.99;100.00;67352.69;5050667;28;20295;-80
2024/02/14 03:41:20;;;;;;;;;;;;;;;-144.99;100.00;67352.69;5052267;28;19913;-80
2024/02/14 03:43:45;;;;;;;;;;;;;;;-144.99;100.00;67352.69;5055131;28;19962;-80
2024/02/14 03:46:12;;;;;;;;;;;;;;;-144.99;100.00;67352.69;5053381;28;19912;-80
2024/02/14 03:48:38;;;;;;;;;;;;;;;-144.99;100.00;67352.69;5055764;28;19919;-81
2024/02/14 03:51:03;;;;;;;;;;;;;;;-144.99;100.00;67352.69;5055416;28;20003;-80
2024/02/14 03:53:28;;;;;;;;;;;;;;;-144.99;100.00;67352.69;5055104;28;19920;-80
2024/02/14 03:55:54;;;;;;;;;;;;;;;-144.99;100.00;67352.69;5053377;28;19921;-80
2024/02/14 03:58:22;;;;;;;;;;;;;;;-144.99;100.00;67352.69;5055300;28;20371;-80
2024/02/14 04:00:48;;;;;;;;;;;;;;;-144.99;100.00;67352.69;5053858;28;19920;-80
2024/02/14 04:03:13;;;;;;;;;;;;;;;-144.99;100.00;67352.69;5053743;28;19917;-80
2024/02/14 04:05:39;;;;;;;;;;;;;;;-144.99;100.00;67352.69;5053224;28;20011;-80
2024/02/14 04:08:04;;;;;;;;;;;;;;;-144.99;100.00;67352.69;5054040;28;19913;-80
2024/02/14 04:10:29;;;;;;;;;;;;;;;-144.99;100.00;67352.69;5055179;28;19966;-80
2024/02/14 04:12:54;;;;;;;;;;;;;;;-144.99;100.00;67352.69;5054631;28;19917;-80
2024/02/14 04:15:20;;;;;;;;;;;;;;;-144.99;100.00;67352.69;5050646;28;19967;-80
2024/02/14 04:17:45;;;;;;;;;;;;;;;-144.99;100.00;67352.69;5050893;28;19940;-81
2024/02/14 04:20:10;;;;;;;;;;;;;;;-144.99;100.00;67352.69;5054954;28;19966;-80
2024/02/14 04:22:35;;;;;;;;;;;;;;;-144.99;100.00;67352.69;5053392;28;19927;-80
2024/02/14 04:25:01;;;;;;;;;;;;;;;-144.99;100.00;67352.69;5054649;28;19957;-80
2024/02/14 04:27:27;;;;;;;;;;;;;;;-144.99;100.00;67352.69;5054038;28;19916;-80
2024/02/14 04:29:53;;;;;;;;;;;;;;;-144.99;100.00;67352.69;5054714;28;19917;-80
2024/02/14 04:32:19;;;;;;;;;;;;;;;-144.99;100.00;67352.69;5053588;28;19913;-80
2024/02/14 04:34:44;;;;;;;;;;;;;;;-144.99;100.00;67352.69;5054525;28;19913;-80
2024/02/14 04:37:12;;;;;;;;;;;;;;;-144.99;100.00;67352.69;5054254;28;20382;-80
2024/02/14 04:39:37;;;;;;;;;;;;;;;-144.99;100.00;67352.69;5054867;28;19943;-80
2024/02/14 04:42:03;;;;;;;;;;;;;;;-144.99;100.00;67352.69;5054797;28;19913;-80
2024/02/14 04:44:28;;;;;;;;;;;;;;;-144.99;100.00;67352.69;5054296;28;19917;-80
2024/02/14 04:46:53;;;;;;;;;;;;;;;-144.99;100.00;67352.69;5052197;28;19913;-80
2024/02/14 04:49:19;;;;;;;;;;;;;;;-144.99;100.00;67352.69;5053411;28;20422;-80
2024/02/14 04:51:45;;;;;;;;;;;;;;;-144.99;100.00;67352.69;5052780;28;19913;-80
2024/02/14 04:54:10;;;;;;;;;;;;;;;-144.99;100.00;67352.69;5051951;28;19913;-80
2024/02/14 04:56:35;;;;;;;;;;;;;;;-144.99;100.00;67352.69;5052055;28;19936;-81
2024/02/14 04:59:01;;;;;;;;;;;;;;;-144.99;100.00;67352.69;5052934;28;19967;-81
2024/02/14 05:01:27;;;;;;;;;;;;;;;-144.99;100.00;67352.69;5047989;28;20008;-80
2024/02/14 05:03:52;;;;;;;;;;;;;;;-144.99;100.00;67352.69;5052618;28;20443;-80
2024/02/14 05:06:17;;;;;;;;;;;;;;;-144.99;100.00;67352.69;5045880;28;20438;-80
2024/02/14 05:08:43;;;;;;;;;;;;;;;-144.99;100.00;67352.69;5053990;28;20395;-81
2024/02/14 05:11:08;;;;;;;;;;;;;;;-144.99;100.00;67352.69;5053853;28;19917;-80
2024/02/14 05:13:33;;;;;;;;;;;;;;;-144.99;100.00;67352.69;5053531;28;19960;-81
2024/02/14 05:16:02;;;;;;;;;;;;;;;-144.99;100.00;67352.69;5053094;28;19913;-80
2024/02/14 05:18:27;;;;;;;;;;;;;;;-144.99;100.00;67352.69;5052633;28;19917;-81
2024/02/14 05:20:52;;;;;;;;;;;;;;;-144.99;100.00;67352.69;5052392;28;19996;-81
2024/02/14 05:23:17;;;;;;;;;;;;;;;-144.99;100.00;67352.69;5052138;28;20295;-80
2024/02/14 05:25:43;;;;;;;;;;;;;;;-144.99;100.00;67352.69;5052907;28;19912;-80
2024/02/14 05:28:13;;;;;;;;;;;;;;;-144.99;100.00;67352.69;5052052;28;19917;-81
2024/02/14 05:30:38;;;;;;;;;;;;;;;-144.99;100.00;67352.69;5053898;28;20336;-81
2024/02/14 05:33:03;;;;;;;;;;;;;;;-144.99;100.00;67352.69;5053287;28;20015;-80
2024/02/14 05:35:29;;;;;;;;;;;;;;;-144.99;100.00;67352.69;5052919;28;19978;-81
2024/02/14 05:37:54;;;;;;;;;;;;;;;-144.99;100.00;67352.69;5053488;28;19921;-81
2024/02/14 05:40:19;;;;;;;;;;;;;;;-144.99;100.00;67352.69;5053232;28;19959;-81
2024/02/14 05:42:44;;;;;;;;;;;;;;;-144.99;100.00;67352.69;5052948;28;20334;-81
2024/02/14 05:45:10;;;;;;;;;;;;;;;-144.99;100.00;67352.69;5052033;28;20292;-80
2024/02/14 05:47:35;;;;;;;;;;;;;;;-144.99;100.00;67352.69;5051180;28;19912;-81
2024/02/14 05:50:01;;;;;;;;;;;;;;;-144.99;100.00;67352.69;5052306;28;19920;-85
2024/02/14 05:52:26;;;;;;;;;;;;;;;-144.99;100.00;67352.69;5053077;28;20291;-81
2024/02/14 05:54:51;;;;;;;;;;;;;;;-144.99;100.00;67352.69;5051700;28;19913;-80
2024/02/14 05:57:16;;;;;;;;;;;;;;;-144.99;100.00;67352.69;5050755;28;20379;-80
2024/02/14 05:59:42;;;;;;;;;;;;;;;-144.99;100.00;67352.69;5053113;28;19912;-81
2024/02/14 06:02:08;;;;;;;;;;;;;;;-144.99;100.00;67352.69;5051609;28;19920;-80
2024/02/14 06:04:33;;;;;;;;;;;;;;;-144.99;100.00;67352.69;5052817;28;20302;-80
2024/02/14 06:06:58;;;;;;;;;;;;;;;-144.99;100.00;67352.69;5050722;28;20003;-80
2024/02/14 06:09:24;;;;;;;;;;;;;;;-144.99;100.00;67352.69;5053067;28;19913;-80
2024/02/14 06:11:49;;;;;;;;;;;;;;;-144.99;100.00;67352.69;5052460;28;19919;-81
2024/02/14 06:14:15;;;;;;;;;;;;;;;-144.99;100.00;67352.69;5051376;28;19913;-80
2024/02/14 06:16:41;;;;;;;;;;;;;;;-144.99;100.00;67352.69;5050615;28;20371;-81
2024/02/14 06:19:06;;;;;;;;;;;;;;;-144.99;100.00;67352.69;5051719;28;19958;-81
2024/02/14 06:21:32;;;;;;;;;;;;;;;-144.99;100.00;67352.69;5053128;28;19920;-81
2024/02/14 06:23:58;;;;;;;;;;;;;;;-144.99;100.00;67352.69;5052816;28;19966;-81
2024/02/14 06:26:23;;;;;;;;;;;;;;;-144.99;100.00;67352.69;5050799;28;19913;-81
2024/02/14 06:28:54;;;;;;;;;;;;;;;-144.99;100.00;67352.69;5052789;28;19917;-81
2024/02/14 06:31:19;;;;;;;;;;;;;;;-144.99;100.00;67352.69;5051199;28;19912;-81
2024/02/14 06:33:44;;;;;;;;;;;;;;;-144.99;100.00;67352.69;5052543;28;19913;-81
2024/02/14 06:36:09;;;;;;;;;;;;;;;-144.99;100.00;67352.69;5052400;28;20280;-81
2024/02/14 06:38:34;;;;;;;;;;;;;;;-144.99;100.00;67352.69;5053794;28;19928;-81
2024/02/14 06:41:00;;;;;;;;;;;;;;;-144.99;100.00;67352.69;5051065;28;19968;-81
2024/02/14 06:43:25;;;;;;;;;;;;;;;-144.99;100.00;67352.69;5052475;28;19916;-81
2024/02/14 06:45:51;;;;;;;;;;;;;;;-144.99;100.00;67352.69;5050207;28;20472;-81
2024/02/14 06:48:16;;;;;;;;;;;;;;;-144.99;100.00;67352.69;5051403;28;19913;-82
2024/02/14 06:50:42;;;;;;;;;;;;;;;-144.99;100.00;67352.69;5052329;28;20398;-81
2024/02/14 06:53:07;;;;;;;;;;;;;;;-144.99;100.00;67352.69;5052401;28;19959;-81
2024/02/14 06:55:32;;;;;;;;;;;;;;;-144.99;100.00;67352.69;5051617;28;19913;-80
2024/02/14 06:58:01;;;;;;;;;;;;;;;-144.99;100.00;67352.69;5051344;28;19920;-81
2024/02/14 07:00:28;;;;;;;;;;;;;;;-144.99;100.00;67352.69;5051907;28;19996;-80
2024/02/14 07:02:53;;;;;;;;;;;;;;;-144.99;100.00;67352.69;5047724;28;19956;-81
2024/02/14 07:05:19;;;;;;;;;;;;;;;-144.99;100.00;67352.69;5046399;28;20417;-81
2024/02/14 07:07:44;;;;;;;;;;;;;;;-144.99;100.00;67352.69;5049054;28;20386;-81
2024/02/14 07:10:09;;;;;;;;;;;;;;;-144.99;100.00;67352.69;5050130;28;19913;-81
2024/02/14 07:12:36;;;;;;;;;;;;;;;-144.99;100.00;67352.69;5050565;28;19981;-80
2024/02/14 07:15:01;;;;;;;;;;;;;;;-144.99;100.00;67352.69;5050502;28;19912;-81
2024/02/14 07:17:26;;;;;;;;;;;;;;;-144.99;100.00;67352.69;5049306;28;19924;-80
2024/02/14 07:19:52;;;;;;;;;;;;;;;-144.99;100.00;67352.69;5050705;28;20379;-81
2024/02/14 07:22:20;;;;;;;;;;;;;;;-144.99;100.00;67352.69;5050500;28;19917;-81
2024/02/14 07:24:48;;;;;;;;;;;;;;;-144.99;100.00;67352.69;5050805;28;19924;-81
2024/02/14 07:27:14;;;;;;;;;;;;;;;-144.99;100.00;67352.69;5050886;28;19912;-81
2024/02/14 07:29:39;;;;;;;;;;;;;;;-144.99;100.00;67352.69;5050398;28;20439;-82
2024/02/14 07:32:06;;;;;;;;;;;;;;;-144.99;100.00;67352.69;5049978;28;19912;-81
2024/02/14 07:34:31;;;;;;;;;;;;;;;-144.99;100.00;67352.69;5050480;28;19913;-81
2024/02/14 07:36:56;;;;;;;;;;;;;;;-144.99;100.00;67352.69;5049715;28;20375;-81
2024/02/14 07:39:21;;;;;;;;;;;;;;;-144.99;100.00;67352.69;5051835;28;19974;-81
2024/02/14 07:41:47;;;;;;;;;;;;;;;-144.99;100.00;67352.69;5051513;28;19984;-81
2024/02/14 07:44:13;;;;;;;;;;;;;;;-144.99;100.00;67352.69;5050520;28;19916;-81
2024/02/14 07:46:38;;;;;;;;;;;;;;;-144.99;100.00;67352.69;5049412;28;19913;-81
2024/02/14 07:49:04;;;;;;;;;;;;;;;-144.99;100.00;67352.69;5050670;28;19978;-81
2024/02/14 07:51:33;;;;;;;;;;;;;;;-144.99;100.00;67352.69;5050249;28;19967;-80
2024/02/14 07:53:59;;;;;;;;;;;;;;;-144.99;100.00;67352.69;5051390;28;20276;-81
2024/02/14 07:56:24;;;;;;;;;;;;;;;-144.99;100.00;67352.69;5050484;28;19958;-81
2024/02/14 07:58:49;;;;;;;;;;;;;;;-144.99;100.00;67352.69;5050221;28;20345;-81
2024/02/14 08:01:15;;;;;;;;;;;;;;;-144.99;100.00;67352.69;5051527;28;20271;-82
2024/02/14 08:03:40;;;;;;;;;;;;;;;-144.99;100.00;67352.69;5051241;28;19924;-82
2024/02/14 08:06:05;;;;;;;;;;;;;;;-144.99;100.00;67352.69;5042428;28;19916;-82
2024/02/14 08:08:31;;;;;;;;;;;;;;;-144.99;100.00;67352.69;5040628;28;19999;-82
2024/02/14 08:10:56;;;;;;;;;;;;;;;-144.99;100.00;67352.69;5039622;28;19923;-83
2024/02/14 08:13:21;;;;;;;;;;;;;;;-144.99;100.00;67352.69;5045867;28;19948;-82
2024/02/14 08:15:47;;;;;;;;;;;;;;;-144.99;100.00;67352.69;5043261;28;19924;-81
2024/02/14 08:18:12;;;;;;;;;;;;;;;-144.99;100.00;67352.69;5040982;28;19917;-82
2024/02/14 08:20:37;;;;;;;;;;;;;;;-144.99;100.00;67352.69;5048516;28;19920;-81
2024/02/14 08:23:03;;;;;;;;;;;;;;;-144.99;100.00;67352.69;5049595;28;20341;-81
2024/02/14 08:25:29;;;;;;;;;;;;;;;-144.99;100.00;67352.69;5051589;28;20375;-82
2024/02/14 08:27:54;;;;;;;;;;;;;;;-144.99;100.00;67352.69;5049761;28;20379;-81
2024/02/14 08:30:20;;;;;;;;;;;;;;;-144.99;100.00;67352.69;5055614;28;19962;-82
2024/02/14 08:32:45;;;;;;;;;;;;;;;-144.99;100.00;67352.69;5054803;28;19913;-82
2024/02/14 08:35:11;;;;;;;;;;;;;;;-144.99;100.00;67352.69;5054349;28;19961;-81
2024/02/14 08:37:38;;;;;;;;;;;;;;;-144.99;100.00;67352.69;5054308;28;19919;-81
2024/02/14 08:40:05;;;;;;;;;;;;;;;-144.99;100.00;67352.69;5053803;28;19920;-81
2024/02/14 08:42:31;;;;;;;;;;;;;;;-144.99;100.00;67352.69;5054424;28;19919;-81
2024/02/14 08:44:56;;;;;;;;;;;;;;;-144.99;100.00;67352.69;5053708;28;19916;-82
2024/02/14 08:47:21;;;;;;;;;;;;;;;-144.99;100.00;67352.69;5054724;28;19913;-81
2024/02/14 08:49:46;;;;;;;;;;;;;;;-144.99;100.00;67352.69;5054016;28;19928;-81
2024/02/14 08:52:12;;;;;;;;;;;;;;;-144.99;100.00;67352.69;5053289;28;19920;-81
2024/02/14 08:54:37;;;;;;;;;;;;;;;-144.99;100.00;67352.69;5053863;28;20457;-81
2024/02/14 08:57:02;;;;;;;;;;;;;;;-144.99;100.00;67352.69;5053029;28;19944;-81
2024/02/14 08:59:28;;;;;;;;;;;;;;;-144.99;100.00;67352.69;5055571;28;19912;-81
2024/02/14 09:01:53;;;;;;;;;;;;;;;-144.99;100.00;67352.69;5053685;28;19966;-84
2024/02/14 09:04:18;;;;;;;;;;;;;;;-144.99;100.00;67352.69;5053826;28;19964;-82
2024/02/14 09:06:44;;;;;;;;;;;;;;;-144.99;100.00;67352.69;5053068;28;19920;-81
2024/02/14 09:09:10;;;;;;;;;;;;;;;-144.99;100.00;67352.69;5055710;28;19917;-85
2024/02/14 09:11:35;;;;;;;;;;;;;;;-144.99;100.00;67352.69;5054212;28;20380;-82
2024/02/14 09:14:06;;;;;;;;;;;;;;;-144.99;100.00;67352.69;5052809;28;19920;-84
2024/02/14 09:16:31;;;;;;;;;;;;;;;-144.99;100.00;67352.69;5052106;28;20390;-80
2024/02/14 09:18:57;;;;;;;;;;;;;;;-144.99;100.00;67352.69;5053063;28;19912;-83
2024/02/14 09:21:22;;;;;;;;;;;;;;;-144.99;100.00;67352.69;5052999;28;19913;-81
2024/02/14 09:23:48;;;;;;;;;;;;;;;-144.99;100.00;67352.69;5054732;28;20024;-80
2024/02/14 09:26:13;;;;;;;;;;;;;;;-144.99;100.00;67352.69;5053963;28;19913;-81
2024/02/14 09:28:42;;;;;;;;;;;;;;;-144.99;100.00;67352.69;5053919;28;20364;-81
2024/02/14 09:31:09;;;;;;;;;;;;;;;-144.99;100.00;67352.69;5053811;28;19923;-81
2024/02/14 09:33:36;;;;;;;;;;;;;;;-144.99;100.00;67352.69;5055370;28;19913;-81
2024/02/14 09:36:01;;;;;;;;;;;;;;;-144.99;100.00;67352.69;5054636;28;19923;-81
2024/02/14 09:38:27;;;;;;;;;;;;;;;-144.99;100.00;67352.69;5055799;28;19921;-81
2024/02/14 09:40:54;;;;;;;;;;;;;;;-144.99;100.00;67352.69;5055050;28;19913;-81
2024/02/14 09:43:19;;;;;;;;;;;;;;;-144.99;100.00;67352.69;5051876;28;19917;-81
2024/02/14 09:45:44;;;;;;;;;;;;;;;-144.99;100.00;67352.69;5050529;28;19920;-81
2024/02/14 09:48:10;;;;;;;;;;;;;;;-144.99;100.00;67352.69;5055386;28;19920;-81
2024/02/14 09:50:37;;;;;;;;;;;;;;;-144.99;100.00;67352.69;5052676;28;19923;-81
2024/02/14 09:53:02;;;;;;;;;;;;;;;-144.99;100.00;67352.69;5053882;28;19913;-81
2024/02/14 09:55:27;;;;;;;;;;;;;;;-144.99;100.00;67352.69;5053489;28;19916;-81
2024/02/14 09:57:54;;;;;;;;;;;;;;;-144.99;100.00;67352.69;5050109;28;19917;-80
2024/02/14 10:00:20;;;;;;;;;;;;;;;-144.99;100.00;67352.69;5053198;28;19924;-81
2024/02/14 10:02:45;;;;;;;;;;;;;;;-144.99;100.00;67352.69;5053624;28;19913;-80
2024/02/14 10:05:11;;;;;;;;;;;;;;;-144.99;100.00;67352.69;5053804;28;19917;-81
2024/02/14 10:07:41;;;;;;;;;;;;;;;-144.99;100.00;67352.69;5051460;28;19944;-80
2024/02/14 10:10:07;;;;;;;;;;;;;;;-144.99;100.00;67352.69;5055214;28;19913;-81
2024/02/14 10:12:32;;;;;;;;;;;;;;;-144.99;100.00;67352.69;5040378;28;19924;-81
2024/02/14 10:14:57;;;;;;;;;;;;;;;-144.99;100.00;67352.69;5049909;28;19938;-81
2024/02/14 10:17:22;;;;;;;;;;;;;;;-144.99;100.00;67352.69;5052648;28;19960;-81
2024/02/14 10:20:05;;;;;;;;;;;;;;;-144.99;100.00;67352.69;5053746;28;19927;-81
2024/02/14 10:22:34;;;;;;;;;;;;;;;-144.99;100.00;67352.69;5053760;28;19955;-81
2024/02/14 10:24:59;;;;;;;;;;;;;;;-144.99;100.00;67352.69;5054734;28;19920;-81
2024/02/14 10:27:25;;;;;;;;;;;;;;;-144.99;100.00;67352.69;5051042;28;19919;-81
2024/02/14 10:29:50;;;;;;;;;;;;;;;-144.99;100.00;67352.69;5052610;28;19923;-81
2024/02/14 10:32:16;;;;;;;;;;;;;;;-144.99;100.00;67352.69;5052654;28;20474;-81
2024/02/14 10:34:43;;;;;;;;;;;;;;;-144.99;100.00;67352.69;5052761;28;20537;-81
2024/02/14 10:37:09;;;;;;;;;;;;;;;-144.99;100.00;67352.69;5051815;28;19963;-81
2024/02/14 10:39:36;;;;;;;;;;;;;;;-144.99;100.00;67352.69;5052008;28;20336;-81
2024/02/14 10:42:01;;;;;;;;;;;;;;;-144.99;100.00;67352.69;5052377;28;20268;-81
2024/02/14 10:44:27;;;;;;;;;;;;;;;-144.99;100.00;67352.69;5054682;28;19917;-81
2024/02/14 10:46:53;;;;;;;;;;;;;;;-144.99;100.00;67352.69;5053524;28;19963;-81
2024/02/14 10:49:19;;;;;;;;;;;;;;;-144.99;100.00;67352.69;5054642;28;19913;-81
2024/02/14 10:51:48;;;;;;;;;;;;;;;-144.99;100.00;67352.69;5052918;28;19919;-80
2024/02/14 10:54:16;;;;;;;;;;;;;;;-144.99;100.00;67352.69;5053385;28;19935;-81
2024/02/14 10:56:45;;;;;;;;;;;;;;;-144.99;100.00;67352.69;5053014;28;19923;-81
2024/02/14 10:59:13;;;;;;;;;;;;;;;-144.99;100.00;67352.69;5053851;28;19919;-81
2024/02/14 11:01:39;;;;;;;;;;;;;;;-144.99;100.00;67352.69;5051513;28;19913;-81
2024/02/14 11:04:04;;;;;;;;;;;;;;;-144.99;100.00;67352.69;5053337;28;20295;-81
2024/02/14 11:06:30;;;;;;;;;;;;;;;-144.99;100.00;67352.69;5053503;28;19920;-81
2024/02/14 11:09:01;;;;;;;;;;;;;;;-144.99;100.00;67352.69;5051448;28;19986;-81
2024/02/14 11:11:33;;;;;;;;;;;;;;;-144.99;100.00;67352.69;5050875;28;20299;-81
2024/02/14 11:13:58;;;;;;;;;;;;;;;-144.99;100.00;67352.69;5050669;28;20011;-81
2024/02/14 11:16:28;;;;;;;;;;;;;;;-144.99;100.00;67352.69;5050677;28;20468;-80
2024/02/14 11:18:54;;;;;;;;;;;;;;;-144.99;100.00;67352.69;5048490;28;19912;-80
2024/02/14 11:21:20;;;;;;;;;;;;;;;-144.99;100.00;67352.69;5050242;28;19917;-80
2024/02/14 11:23:54;;;;;;;;;;;;;;;-144.99;100.00;67352.69;5046884;28;19943;-80
2024/02/14 11:26:23;;;;;;;;;;;;;;;-144.99;100.00;67352.69;5047116;28;19913;-81
2024/02/14 11:28:48;;;;;;;;;;;;;;;-144.99;100.00;67352.69;5051586;28;20299;-81
2024/02/14 11:31:16;;;;;;;;;;;;;;;-144.99;100.00;67352.69;5051550;28;19913;-80
2024/02/14 11:33:44;;;;;;;;;;;;;;;-144.99;100.00;67352.69;5051648;28;19936;-80
2024/02/14 11:36:10;;;;;;;;;;;;;;;-144.99;100.00;67352.69;5049621;28;19959;-81
2024/02/14 11:38:35;;;;;;;;;;;;;;;-144.99;100.00;67352.69;5047561;28;19913;-81
2024/02/14 11:41:02;;;;;;;;;;;;;;;-144.99;100.00;67352.69;5044453;28;19970;-81
2024/02/14 11:43:27;;;;;;;;;;;;;;;-144.99;100.00;67352.69;5051133;28;19917;-81
2024/02/14 11:45:52;;;;;;;;;;;;;;;-144.99;100.00;67352.69;5048970;28;19917;-81
2024/02/14 11:48:19;;;;;;;;;;;;;;;-144.99;100.00;67352.69;5053212;28;19916;-81
2024/02/14 11:50:45;;;;;;;;;;;;;;;-144.99;100.00;67352.69;5050064;28;19913;-81
2024/02/14 11:53:11;;;;;;;;;;;;;;;-144.99;100.00;67352.69;5051480;28;19912;-81
2024/02/14 11:55:37;;;;;;;;;;;;;;;-144.99;100.00;67352.69;5050704;28;19917;-81
2024/02/14 11:58:06;;;;;;;;;;;;;;;-144.99;100.00;67352.69;5051368;28;19974;-81
2024/02/14 12:00:32;;;;;;;;;;;;;;;-144.99;100.00;67352.69;5050172;28;19913;-81
2024/02/14 12:02:57;;;;;;;;;;;;;;;-144.99;100.00;67352.69;5052570;28;19920;-81
2024/02/14 12:05:23;;;;;;;;;;;;;;;-144.99;100.00;67352.69;5059067;28;20346;-81
2024/02/14 12:07:50;;;;;;;;;;;;;;;-144.99;100.00;67352.69;5057649;28;19920;-81
2024/02/14 12:10:17;;;;;;;;;;;;;;;-144.99;100.00;67352.69;5059181;28;19917;-81